Pittsville, Wisconsin
Current Conditions -  °F | °C
As of 12:54 AM on Thursday 18 Dec 2014 (Local Time) from KMFI Reporting Station
Overcast Overcast  
Wind Chill: 10°   Ceiling: 1200
Heat Index: 20°   Visibility: 10mi
Dew Point: 15°   Wind: 8mph
Humidity: 81%   Direction: 320°NW
Pressure: 30.26"   Gusts: NA
Location:  44.44°N, 90.12°W
Report Text: KMFI 180654Z AUTO 32007KT 10SM OVC012 M07/M09 A3026 RMK AO2 SLP270 T10671094
Loading
Personal Weather Stations






























Interactive Weather Map New forecast layout! Learn more

10-Day Weather Forecast

Advertisements
Track Severe Weather on mobile